TimeEDT,TemperatureF,Dew PointF,Humidity,Sea Level PressureIn,VisibilityMPH,Wind Direction,Wind SpeedMPH,Gust SpeedMPH,PrecipitationIn,Events,Conditions,WindDirDegrees,DateUTC
12:53 AM,63.0,60.1,90,30.00,10.0,Calm,Calm,-,N/A,,Mostly Cloudy,0,2013-10-12 04:53:00
1:53 AM,64.9,61.0,87,30.00,10.0,Calm,Calm,-,N/A,,Mostly Cloudy,0,2013-10-12 05:53:00
2:53 AM,66.0,61.0,84,29.99,10.0,WNW,5.8,-,N/A,,Mostly Cloudy,300,2013-10-12 06:53:00
3:53 AM,66.0,62.1,87,29.99,10.0,WNW,4.6,-,N/A,,Mostly Cloudy,300,2013-10-12 07:53:00
4:53 AM,64.0,61.0,90,29.99,10.0,Calm,Calm,-,N/A,,Mostly Cloudy,0,2013-10-12 08:53:00
5:53 AM,68.0,64.0,87,30.00,10.0,WNW,4.6,-,N/A,,Overcast,300,2013-10-12 09:53:00
6:53 AM,64.9,62.1,90,30.01,10.0,West,3.5,-,N/A,,Overcast,280,2013-10-12 10:53:00
7:53 AM,64.0,62.1,93,30.03,9.0,Calm,Calm,-,N/A,,Overcast,0,2013-10-12 11:53:00
8:53 AM,72.0,64.9,78,30.04,10.0,Calm,Calm,-,N/A,,Overcast,0,2013-10-12 12:53:00
9:53 AM,73.0,63.0,71,30.06,10.0,NW,4.6,-,N/A,,Mostly Cloudy,310,2013-10-12 13:53:00
10:53 AM,80.1,63.0,56,30.06,10.0,Calm,Calm,-,N/A,,Clear,0,2013-10-12 14:53:00
11:53 AM,82.9,57.0,41,30.05,10.0,WNW,6.9,-,N/A,,Scattered Clouds,300,2013-10-12 15:53:00
12:53 PM,81.0,59.0,47,30.04,10.0,NW,3.5,-,N/A,,Mostly Cloudy,320,2013-10-12 16:53:00
1:53 PM,84.0,57.9,41,30.01,10.0,NW,6.9,-,N/A,,Scattered Clouds,320,2013-10-12 17:53:00
2:53 PM,82.0,57.0,42,30.00,10.0,WNW,9.2,-,N/A,,Mostly Cloudy,300,2013-10-12 18:53:00
3:53 PM,82.0,57.9,44,29.99,10.0,NW,5.8,-,N/A,,Partly Cloudy,310,2013-10-12 19:53:00
4:53 PM,82.0,57.0,42,29.98,10.0,NNW,4.6,-,N/A,,Partly Cloudy,340,2013-10-12 20:53:00
5:53 PM,81.0,59.0,47,29.99,10.0,NW,5.8,-,N/A,,Partly Cloudy,310,2013-10-12 21:53:00
6:53 PM,77.0,61.0,58,30.00,10.0,Calm,Calm,-,N/A,,Clear,0,2013-10-12 22:53:00
7:53 PM,68.0,62.1,81,30.02,10.0,Calm,Calm,-,N/A,,Clear,0,2013-10-12 23:53:00
8:53 PM,66.9,61.0,81,30.03,10.0,Calm,Calm,-,N/A,,Clear,0,2013-10-13 00:53:00
9:53 PM,64.0,59.0,84,30.05,10.0,Calm,Calm,-,N/A,,Clear,0,2013-10-13 01:53:00
10:53 PM,62.1,59.0,90,30.06,10.0,Calm,Calm,-,N/A,,Clear,0,2013-10-13 02:53:00
11:53 PM,61.0,57.9,90,30.06,9.0,Calm,Calm,-,N/A,,Clear,0,2013-10-13 03:53:00